Time;durP1;ratioP1;P1;durP2;ratioP2;P2;SDS_P1;SDS_P2;PMS_P1;PMS_P2;Temp;Humidity;BMP_temperature;BMP_pressure;BME280_temperature;BME280_humidity;BME280_pressure;Samples;Min_cycle;Max_cycle;Signal;HPM_P1;HPM_P2
2022/05/09 00:00:38;;;;;;;16.20;4.40;;;;;;;12.44;40.76;99831.94;25145;1316;3070754;-65
2022/05/09 00:03:06;;;;;;;16.20;5.10;;;;;;;12.39;40.88;99829.48;25122;1316;3030049;-65
2022/05/09 00:05:36;;;;;;;13.90;5.10;;;;;;;12.44;40.79;99828.30;25109;1316;3054463;-65
2022/05/09 00:08:05;;;;;;;15.00;5.20;;;;;;;12.38;41.00;99826.68;25140;1315;3026584;-64
2022/05/09 00:10:35;;;;;;;16.10;4.30;;;;;;;12.40;40.86;99828.48;25129;1316;3055934;-65
2022/05/09 00:13:04;;;;;;;19.00;5.00;;;;;;;12.32;41.20;99822.52;25101;1316;3028109;-64
2022/05/09 00:15:33;;;;;;;20.20;4.90;;;;;;;12.31;41.18;99821.00;25082;1316;3049043;-62
2022/05/09 00:18:07;;;;;;;22.50;5.20;;;;;;;12.31;41.06;99823.30;25098;1315;3051738;-63
2022/05/09 00:20:36;;;;;;;18.00;4.40;;;;;;;12.30;41.24;99816.65;25171;1315;3027689;-64
2022/05/09 00:23:05;;;;;;;17.30;4.80;;;;;;;12.23;41.54;99817.11;25030;1315;3026943;-63
2022/05/09 00:25:34;;;;;;;18.10;5.00;;;;;;;12.13;41.83;99818.04;25135;1316;3052871;-62
2022/05/09 00:28:06;;;;;;;18.10;4.80;;;;;;;12.25;41.35;99815.78;25054;1316;3026659;-63
2022/05/09 00:30:35;;;;;;;14.40;4.60;;;;;;;12.22;41.44;99811.38;25060;1315;3026807;-64
2022/05/09 00:33:05;;;;;;;20.60;5.00;;;;;;;12.08;41.69;99811.52;25070;1316;3027248;-63
2022/05/09 00:35:36;;;;;;;17.80;5.50;;;;;;;12.05;41.87;99813.61;25076;1316;3026375;-65
2022/05/09 00:38:07;;;;;;;14.10;4.80;;;;;;;11.99;42.06;99811.86;25036;1316;3026498;-64
2022/05/09 00:40:38;;;;;;;10.90;4.40;;;;;;;11.98;41.93;99807.93;25127;1316;3026665;-63
2022/05/09 00:43:28;;;;;;;24.40;5.10;;;;;;;11.88;42.28;99804.60;25059;1314;3027012;-65
2022/05/09 00:45:58;;;;;;;20.80;5.40;;;;;;;11.90;42.25;99806.95;25118;1315;3052914;-64
2022/05/09 00:48:27;;;;;;;13.80;4.40;;;;;;;11.83;42.32;99804.38;25050;1316;3028766;-63
2022/05/09 00:50:56;;;;;;;16.60;4.70;;;;;;;11.76;42.74;99799.18;25153;1316;3053455;-64
2022/05/09 00:53:25;;;;;;;14.20;4.30;;;;;;;11.77;42.71;99797.20;25098;1315;3026562;-64
2022/05/09 00:56:00;;;;;;;18.70;5.00;;;;;;;11.79;42.55;99795.33;25153;1315;3026432;-64
2022/05/09 00:58:40;;;;;;;21.00;5.20;;;;;;;11.83;42.37;99796.86;25036;1316;3026498;-62
2022/05/09 01:01:10;;;;;;;19.20;4.30;;;;;;;11.77;42.64;99789.15;25171;1315;3048900;-65
2022/05/09 01:04:02;;;;;;;17.60;4.50;;;;;;;11.74;42.62;99788.08;25055;1316;3026254;-63
2022/05/09 01:06:32;;;;;;;13.00;4.70;;;;;;;11.69;42.89;99794.55;25165;1316;3055076;-65
2022/05/09 01:09:01;;;;;;;15.20;4.70;;;;;;;11.83;42.51;99789.12;25151;1316;3028810;-63
2022/05/09 01:11:30;;;;;;;20.20;5.00;;;;;;;11.78;42.63;99790.65;25095;1316;3026798;-65
2022/05/09 01:14:06;;;;;;;17.20;4.50;;;;;;;11.75;42.82;99791.17;25037;1318;3026427;-65
2022/05/09 01:16:35;;;;;;;22.90;4.90;;;;;;;11.71;42.77;99785.45;25023;1315;3050853;-65
2022/05/09 01:19:37;;;;;;;18.30;4.50;;;;;;;11.67;42.99;99784.46;25153;1316;3026400;-65
2022/05/09 01:22:20;;;;;;;14.20;4.70;;;;;;;11.57;43.30;99792.45;25091;1316;3051135;-63
2022/05/09 01:24:49;;;;;;;14.70;5.00;;;;;;;11.47;43.73;99784.41;25133;1316;3053794;-65
2022/05/09 01:27:18;;;;;;;11.90;4.30;;;;;;;11.46;43.67;99783.05;25093;1315;3026633;-64
2022/05/09 01:30:33;;;;;;;16.60;4.40;;;;;;;11.48;43.67;99788.40;25056;1315;3026789;-64
2022/05/09 01:33:12;;;;;;;15.30;4.80;;;;;;;11.45;43.72;99784.70;24933;1321;3054793;-63
2022/05/09 01:35:53;;;;;;;13.80;4.10;;;;;;;11.44;43.86;99777.07;24982;1322;3053384;-64
2022/05/09 01:38:50;;;;;;;12.60;4.70;;;;;;;11.40;44.07;99780.27;25076;1315;3056553;-64
2022/05/09 01:41:19;;;;;;;20.90;4.80;;;;;;;11.32;44.25;99784.23;25138;1316;3050290;-63
2022/05/09 01:43:51;;;;;;;22.00;5.10;;;;;;;11.39;44.16;99779.64;25059;1315;3026678;-64
2022/05/09 01:46:23;;;;;;;18.20;4.60;;;;;;;11.28;44.56;99772.20;25112;1315;3026286;-63
2022/05/09 01:51:42;;;;;;;16.50;4.80;;;;;;;11.26;44.56;99769.89;25112;1316;3048552;-65
2022/05/09 01:54:11;;;;;;;22.30;5.20;;;;;;;11.34;44.53;99769.05;25066;1316;3026724;-64
2022/05/09 01:56:41;;;;;;;15.50;4.50;;;;;;;11.30;44.43;99764.41;25097;1316;3026684;-63
2022/05/09 01:59:11;;;;;;;23.10;4.60;;;;;;;11.31;44.26;99761.00;25124;1315;3048610;-64
2022/05/09 02:01:45;;;;;;;19.20;5.20;;;;;;;11.37;43.98;99760.83;25101;1315;3026512;-63
2022/05/09 02:04:14;;;;;;;;;;;;;;;11.43;43.49;99751.20;25143;1316;3052488;-61
2022/05/09 02:06:43;;;;;;;28.00;7.50;;;;;;;11.56;42.94;99753.73;25061;1316;3026417;-63
2022/05/09 02:09:12;;;;;;;27.10;8.60;;;;;;;11.68;42.32;99757.23;25100;1315;3054205;-63
2022/05/09 02:11:41;;;;;;;31.70;6.90;;;;;;;11.79;42.35;99749.19;25172;1315;3027119;-64
2022/05/09 02:14:10;;;;;;;21.60;6.90;;;;;;;11.85;42.03;99749.68;25122;1315;3048257;-65
2022/05/09 02:16:40;;;;;;;30.60;7.70;;;;;;;11.87;42.07;99748.68;25371;1316;3026484;-63
2022/05/09 02:19:09;;;;;;;26.20;8.50;;;;;;;11.94;41.87;99748.80;25540;1316;3028593;-62
2022/05/09 02:21:39;;;;;;;26.30;7.90;;;;;;;11.98;41.84;99750.33;25554;1316;3051144;-64
2022/05/09 02:24:08;;;;;;;45.00;10.10;;;;;;;12.02;41.70;99749.01;25368;1315;3026183;-65
2022/05/09 02:26:38;;;;;;;38.30;8.80;;;;;;;12.11;41.48;99744.80;25161;1315;3070192;-63
2022/05/09 02:29:07;;;;;;;29.10;8.90;;;;;;;12.13;41.11;99747.29;25090;1314;3026487;-67
2022/05/09 02:31:36;;;;;;;35.40;10.00;;;;;;;12.10;41.33;99742.77;25089;1315;3026083;-63
2022/05/09 02:34:05;;;;;;;29.10;8.80;;;;;;;12.23;40.97;99744.75;25076;1315;3026262;-65
2022/05/09 02:36:35;;;;;;;30.10;6.60;;;;;;;12.30;40.71;99740.63;25073;1316;3050729;-64
2022/05/09 02:39:04;;;;;;;27.80;6.90;;;;;;;12.40;40.41;99741.41;24808;1315;3030437;-63
2022/05/09 02:41:33;;;;;;;26.10;7.20;;;;;;;12.32;40.52;99741.71;25019;1316;3070976;-64
2022/05/09 02:44:03;;;;;;;24.00;8.00;;;;;;;12.38;40.32;99749.79;25151;1316;3027696;-63
2022/05/09 02:46:32;;;;;;;26.40;7.70;;;;;;;12.51;39.95;99744.20;25124;1316;3026625;-63
2022/05/09 02:49:02;;;;;;;28.70;7.90;;;;;;;12.51;39.67;99744.20;25047;1316;3026622;-64
2022/05/09 02:51:32;;;;;;;23.00;7.40;;;;;;;12.70;38.59;99745.61;25127;1316;3026747;-64
2022/05/09 02:54:01;;;;;;;26.90;7.70;;;;;;;12.83;38.47;99750.42;25124;1316;3026429;-62
2022/05/09 02:56:30;;;;;;;39.10;9.10;;;;;;;12.89;38.50;99751.20;25133;1316;3054894;-64
2022/05/09 02:58:59;;;;;;;28.10;9.20;;;;;;;12.94;38.46;99749.53;25069;1316;3026208;-64
2022/05/09 03:01:29;;;;;;;33.00;8.40;;;;;;;13.00;38.64;99749.14;25084;1316;3053731;-66
2022/05/09 03:06:46;;;;;;;35.00;8.00;;;;;;;13.00;38.81;99746.80;25098;1316;3049512;-64
2022/05/09 03:09:15;;;;;;;25.70;8.30;;;;;;;12.99;39.39;99746.58;25068;1315;3028399;-66
2022/05/09 03:11:45;;;;;;;25.60;8.40;;;;;;;12.95;39.57;99744.20;25091;1315;3070863;-63
2022/05/09 03:14:14;;;;;;;34.40;9.80;;;;;;;12.98;39.53;99743.26;25123;1315;3026256;-65
2022/05/09 03:16:43;;;;;;;28.50;9.50;;;;;;;12.90;39.99;99743.96;25114;1315;3026288;-67
2022/05/09 03:19:12;;;;;;;35.70;9.50;;;;;;;12.73;40.75;99741.19;25126;1315;3070633;-63
2022/05/09 03:21:42;;;;;;;34.00;8.60;;;;;;;12.70;40.82;99739.46;25066;1316;3026931;-67
2022/05/09 03:24:11;;;;;;;29.60;7.30;;;;;;;12.58;41.39;99735.70;25074;1314;3026371;-65
2022/05/09 03:26:40;;;;;;;23.30;6.40;;;;;;;12.48;41.66;99739.30;25102;1316;3026434;-64
2022/05/09 03:29:09;;;;;;;25.70;6.50;;;;;;;12.43;41.92;99739.60;25167;1316;3027077;-65
2022/05/09 03:31:38;;;;;;;24.70;6.90;;;;;;;12.39;41.90;99736.91;25124;1316;3051942;-64
2022/05/09 03:34:07;;;;;;;15.50;5.10;;;;;;;12.31;42.19;99739.18;25176;1316;3028665;-64
2022/05/09 03:36:37;;;;;;;13.40;5.20;;;;;;;12.31;42.30;99742.45;25112;1318;3052494;-63
2022/05/09 03:39:07;;;;;;;17.60;5.70;;;;;;;12.31;42.59;99742.12;25061;1314;3026795;-63
2022/05/09 03:41:39;;;;;;;22.60;6.40;;;;;;;12.25;42.39;99739.50;25116;1316;3026573;-64
2022/05/09 03:44:08;;;;;;;21.10;7.00;;;;;;;12.11;42.71;99739.14;25050;1315;3026813;-64
2022/05/09 03:46:37;;;;;;;32.70;7.00;;;;;;;12.25;42.27;99739.85;25100;1315;3052942;-64
2022/05/09 03:49:06;;;;;;;37.90;7.70;;;;;;;12.39;42.03;99743.55;25122;1315;3028066;-64
2022/05/09 03:51:35;;;;;;;25.20;6.80;;;;;;;12.42;41.74;99742.32;25146;1316;3026479;-64
2022/05/09 03:54:04;;;;;;;22.90;6.90;;;;;;;12.60;41.58;99744.17;25150;1315;3055069;-63
2022/05/09 03:56:33;;;;;;;24.60;7.60;;;;;;;12.60;41.76;99745.01;25070;1314;3026661;-64
2022/05/09 03:59:01;;;;;;;26.70;7.20;;;;;;;12.65;41.66;99745.42;25086;1315;3048101;-64
2022/05/09 04:02:22;;;;;;;24.00;7.40;;;;;;;12.86;41.26;99745.61;31526;1319;3026978;-65
2022/05/09 04:04:51;;;;;;;30.00;9.30;;;;;;;13.02;41.05;99743.02;24866;1322;3026266;-66
2022/05/09 04:07:21;;;;;;;30.90;8.30;;;;;;;13.30;40.64;99747.83;24915;1322;3026356;-65
2022/05/09 04:09:50;;;;;;;33.10;7.90;;;;;;;13.24;40.97;99747.33;24977;1322;3026496;-66
2022/05/09 04:12:20;;;;;;;26.40;7.30;;;;;;;13.16;41.11;99746.66;24997;1322;3054524;-64
2022/05/09 04:17:37;;;;;;;27.90;7.80;;;;;;;13.16;41.14;99745.05;25039;1319;3051708;-64
2022/05/09 04:20:08;;;;;;;25.30;7.00;;;;;;;13.16;41.11;99746.30;25047;1316;3026613;-65
2022/05/09 04:22:40;;;;;;;31.60;6.80;;;;;;;13.28;41.11;99749.55;25120;1316;3068994;-64
2022/05/09 04:25:10;;;;;;;26.70;6.80;;;;;;;13.31;40.93;99748.50;25014;1316;3026361;-63
2022/05/09 04:27:40;;;;;;;30.60;7.80;;;;;;;13.36;40.68;99749.03;25074;1316;3029456;-64
2022/05/09 04:30:11;;;;;;;35.90;7.40;;;;;;;13.43;40.65;99749.77;25173;1313;3027212;-66
2022/05/09 04:32:40;;;;;;;25.00;7.70;;;;;;;13.58;40.53;99744.38;25155;1312;3049065;-65
2022/05/09 04:35:17;;;;;;;24.70;7.10;;;;;;;13.74;40.38;99745.73;25103;1312;3026091;-66
2022/05/09 04:37:52;;;;;;;22.00;7.00;;;;;;;13.74;40.79;99741.69;25117;1312;3071160;-63
2022/05/09 04:40:23;;;;;;;32.90;7.90;;;;;;;13.78;40.76;99738.09;25164;1312;3048350;-65
2022/05/09 04:42:53;;;;;;;23.90;7.80;;;;;;;13.87;40.86;99741.01;25131;1313;3026234;-68
2022/05/09 04:45:22;;;;;;;31.10;8.20;;;;;;;13.88;40.65;99740.36;25100;1315;3030450;-64
2022/05/09 04:47:51;;;;;;;34.60;8.90;;;;;;;13.92;40.63;99742.77;25172;1316;3049043;-63
2022/05/09 04:50:23;;;;;;;30.60;8.10;;;;;;;14.00;40.41;99735.45;25070;1313;3026453;-63
2022/05/09 04:52:52;;;;;;;30.20;8.70;;;;;;;14.11;40.47;99740.70;25168;1316;3026758;-65
2022/05/09 04:55:21;;;;;;;36.10;9.60;;;;;;;14.26;40.52;99731.90;25157;1312;3026979;-64
2022/05/09 04:57:50;;;;;;;25.00;8.20;;;;;;;14.33;40.48;99734.17;25154;1312;3051809;-65
2022/05/09 05:00:21;;;;;;;30.70;8.10;;;;;;;14.51;40.49;99737.69;25148;1316;3027583;-64
2022/05/09 05:02:51;;;;;;;26.00;8.20;;;;;;;14.64;40.82;99737.09;25152;1316;3026012;-64
2022/05/09 05:05:22;;;;;;;33.10;8.80;;;;;;;14.73;40.86;99731.18;25149;1316;3029428;-65
2022/05/09 05:07:52;;;;;;;43.60;8.20;;;;;;;14.80;41.08;99735.43;25183;1315;3026659;-64
2022/05/09 05:10:21;;;;;;;27.30;8.10;;;;;;;14.89;41.10;99732.47;25190;1312;3028142;-63
2022/05/09 05:12:50;;;;;;;33.70;8.00;;;;;;;14.95;40.92;99729.89;25121;1315;3049745;-67
2022/05/09 05:15:19;;;;;;;30.90;8.40;;;;;;;15.06;40.34;99726.11;25116;1312;3026742;-65
2022/05/09 05:17:48;;;;;;;33.50;8.40;;;;;;;15.23;40.28;99730.96;25128;1313;3059093;-63
2022/05/09 05:20:17;;;;;;;29.90;8.40;;;;;;;15.36;40.81;99727.00;25144;1312;3026211;-65
2022/05/09 05:22:47;;;;;;;34.40;8.30;;;;;;;15.45;40.94;99729.85;25111;1312;3054123;-64
2022/05/09 05:25:19;;;;;;;32.90;8.70;;;;;;;15.55;40.42;99731.38;25139;1312;3026805;-63
2022/05/09 05:27:48;;;;;;;39.50;9.60;;;;;;;15.61;40.68;99726.12;25136;1316;3027286;-64
2022/05/09 05:30:18;;;;;;;35.50;8.50;;;;;;;15.73;40.56;99723.11;25126;1312;3027413;-65
2022/05/09 05:32:48;;;;;;;33.30;8.90;;;;;;;15.80;40.44;99724.86;25135;1315;3026464;-65
2022/05/09 05:35:19;;;;;;;40.60;8.70;;;;;;;15.89;40.06;99721.36;25148;1315;3026753;-64
2022/05/09 05:37:48;;;;;;;38.10;9.10;;;;;;;16.04;40.33;99716.66;25119;1315;3026656;-65
2022/05/09 05:40:17;;;;;;;28.40;8.00;;;;;;;16.15;40.31;99715.96;25197;1313;3030001;-67
2022/05/09 05:42:48;;;;;;;33.10;7.90;;;;;;;16.28;39.82;99717.59;25148;1316;3069491;-65
2022/05/09 05:45:19;;;;;;;47.90;8.90;;;;;;;16.41;39.72;99717.90;25143;1315;3026336;-66
2022/05/09 05:47:49;;;;;;;27.20;8.30;;;;;;;16.45;39.37;99716.72;25104;1312;3027014;-68
2022/05/09 05:50:21;;;;;;;45.60;9.70;;;;;;;16.54;39.24;99711.41;25135;1313;3029166;-65
2022/05/09 05:52:50;;;;;;;36.40;9.20;;;;;;;16.57;39.34;99713.58;25197;1313;3027001;-66
2022/05/09 05:55:19;;;;;;;26.20;9.10;;;;;;;16.70;38.90;99710.77;25101;1319;3028288;-67
2022/05/09 05:57:49;;;;;;;36.00;9.60;;;;;;;16.85;38.47;99711.54;25185;1313;3052888;-65
2022/05/09 06:00:21;;;;;;;37.10;10.40;;;;;;;16.92;38.39;99706.16;25113;1315;3026323;-68
2022/05/09 06:02:50;;;;;;;31.80;9.20;;;;;;;17.02;37.99;99703.04;25165;1315;3051347;-65
2022/05/09 06:05:20;;;;;;;36.00;9.40;;;;;;;17.15;38.01;99702.48;25129;1312;3026468;-67
2022/05/09 06:07:52;;;;;;;34.10;9.30;;;;;;;17.23;37.58;99699.69;25086;1316;3050882;-65
2022/05/09 06:10:22;;;;;;;29.80;9.10;;;;;;;17.35;37.61;99699.63;25156;1315;3026627;-65
2022/05/09 06:12:51;;;;;;;31.00;9.30;;;;;;;17.45;37.64;99697.48;25081;1315;3026426;-67
2022/05/09 06:15:31;;;;;;;35.20;8.80;;;;;;;17.57;37.28;99690.94;25135;1315;3027186;-65
2022/05/09 06:18:08;;;;;;;41.90;9.10;;;;;;;17.67;37.40;99691.02;25131;1315;3049838;-65
2022/05/09 06:20:37;;;;;;;30.80;8.90;;;;;;;17.77;37.41;99691.77;25115;1316;3054464;-63
2022/05/09 06:23:07;;;;;;;30.10;9.10;;;;;;;17.87;37.30;99694.23;25169;1313;3026951;-65
2022/05/09 06:25:37;;;;;;;39.40;8.80;;;;;;;17.95;37.03;99697.65;25157;1312;3026575;-69
2022/05/09 06:28:06;;;;;;;31.40;8.20;;;;;;;18.07;36.93;99695.34;25156;1315;3026413;-64
2022/05/09 06:30:36;;;;;;;36.80;9.20;;;;;;;18.06;36.72;99695.23;25148;1316;3026398;-65
2022/05/09 06:33:05;;;;;;;30.40;8.40;;;;;;;18.19;36.55;99691.45;25184;1315;3026252;-67
2022/05/09 06:35:45;;;;;;;22.60;7.20;;;;;;;18.36;36.21;99693.19;25144;1315;3048955;-68
2022/05/09 06:38:16;;;;;;;32.50;8.60;;;;;;;18.54;36.23;99689.56;25109;1313;3052675;-71
2022/05/09 06:40:45;;;;;;;34.70;8.20;;;;;;;18.62;36.00;99688.65;25190;1314;3028879;-66
2022/05/09 06:43:15;;;;;;;29.40;8.00;;;;;;;18.69;35.85;99685.80;25123;1315;3026519;-69
2022/05/09 06:45:44;;;;;;;21.70;7.90;;;;;;;18.71;36.11;99683.06;25117;1312;3054594;-68
2022/05/09 06:48:13;;;;;;;24.10;8.60;;;;;;;18.78;35.67;99688.46;25169;1315;3027671;-65
2022/05/09 06:50:42;;;;;;;23.50;7.60;;;;;;;18.84;36.40;99687.57;25140;1316;3048284;-63
2022/05/09 06:53:12;;;;;;;26.00;7.80;;;;;;;18.94;35.92;99683.63;25152;1316;3028307;-67
2022/05/09 06:55:41;;;;;;;26.60;8.20;;;;;;;19.08;35.78;99682.56;25070;1314;3026538;-64
2022/05/09 06:58:12;;;;;;;41.60;7.90;;;;;;;19.22;35.60;99680.18;25114;1315;3048885;-68
2022/05/09 07:00:41;;;;;;;27.40;8.30;;;;;;;19.30;35.40;99684.05;25157;1315;3026319;-66
2022/05/09 07:03:12;;;;;;;32.80;7.80;;;;;;;19.41;35.66;99679.28;25141;1315;3027360;-65
2022/05/09 07:05:44;;;;;;;29.30;8.50;;;;;;;19.58;35.12;99677.05;25194;1313;3048834;-67
2022/05/09 07:08:13;;;;;;;39.50;11.40;;;;;;;19.65;34.78;99683.11;25122;1315;3026641;-66
2022/05/09 07:11:02;;;;;;;46.00;12.20;;;;;;;19.63;33.78;99679.19;25139;1316;3052683;-69
2022/05/09 07:13:31;;;;;;;43.90;13.20;;;;;;;19.69;33.19;99679.91;25250;1315;3026549;-67
2022/05/09 07:16:01;;;;;;;46.80;14.50;;;;;;;19.80;33.07;99679.33;25609;1313;3026894;-62
2022/05/09 07:18:32;;;;;;;46.20;12.70;;;;;;;19.88;33.10;99678.86;25642;1315;3027268;-64
2022/05/09 07:21:01;;;;;;;73.50;17.50;;;;;;;20.02;32.96;99679.26;25585;1315;3026456;-69
2022/05/09 07:23:30;;;;;;;57.40;15.60;;;;;;;20.09;32.59;99671.09;25163;1316;3051713;-68
2022/05/09 07:26:00;;;;;;;43.30;13.90;;;;;;;20.08;32.46;99668.55;25123;1315;3028972;-70
2022/05/09 07:28:30;;;;;;;47.00;14.10;;;;;;;20.16;32.02;99672.03;25202;1312;3055537;-69
2022/05/09 07:30:59;;;;;;;42.50;12.90;;;;;;;20.10;31.34;99670.67;25121;1315;3028329;-64
2022/05/09 07:33:28;;;;;;;41.90;12.30;;;;;;;20.18;31.62;99663.77;25128;1315;3028370;-67
2022/05/09 07:35:57;;;;;;;51.30;13.80;;;;;;;20.39;31.51;99658.02;25180;1313;3027300;-67
2022/05/09 07:38:27;;;;;;;42.90;14.80;;;;;;;20.51;31.52;99657.39;25103;1314;3028294;-66
2022/05/09 07:40:58;;;;;;;39.00;13.50;;;;;;;20.58;31.24;99652.59;25122;1318;3026549;-67
2022/05/09 07:43:28;;;;;;;32.40;12.10;;;;;;;20.69;31.40;99652.74;25118;1316;3026744;-64
2022/05/09 07:45:57;;;;;;;38.10;13.20;;;;;;;20.81;31.09;99649.27;25195;1316;3069382;-69
2022/05/09 07:48:27;;;;;;;42.60;11.50;;;;;;;20.87;31.02;99654.58;25125;1312;3026871;-66
2022/05/09 07:50:58;;;;;;;25.90;9.70;;;;;;;20.92;31.07;99654.16;25120;1315;3052266;-66
2022/05/09 07:53:30;;;;;;;32.40;9.50;;;;;;;20.97;31.02;99654.41;25154;1316;3026809;-66
2022/05/09 07:56:04;;;;;;;29.10;8.90;;;;;;;21.15;30.74;99658.11;25192;1315;3048102;-70
2022/05/09 07:58:33;;;;;;;25.50;8.40;;;;;;;21.06;30.54;99661.16;25162;1316;3028193;-68
2022/05/09 08:01:03;;;;;;;24.00;9.20;;;;;;;21.03;31.08;99665.77;25149;1313;3026759;-67
2022/05/09 08:03:34;;;;;;;17.70;8.00;;;;;;;21.11;30.58;99660.70;25117;1313;3048958;-69
2022/05/09 08:06:04;;;;;;;22.60;7.00;;;;;;;21.11;30.73;99660.02;25171;1313;3026398;-67
2022/05/09 08:08:36;;;;;;;23.50;7.10;;;;;;;21.10;31.00;99654.71;25139;1313;3026482;-67
2022/05/09 08:11:05;;;;;;;16.60;5.40;;;;;;;21.14;31.31;99652.92;25160;1313;3026341;-69
2022/05/09 08:13:34;;;;;;;25.20;6.10;;;;;;;21.12;31.36;99661.13;25139;1313;3030274;-68
2022/05/09 08:16:03;;;;;;;16.00;5.30;;;;;;;21.11;31.39;99661.73;25142;1313;3051469;-68
2022/05/09 08:18:33;;;;;;;14.00;5.40;;;;;;;21.29;31.36;99656.46;25134;1312;3027518;-69
2022/05/09 08:21:04;;;;;;;17.60;5.80;;;;;;;21.50;31.37;99649.71;25160;1315;3026324;-67
2022/05/09 08:23:33;;;;;;;12.50;5.20;;;;;;;21.40;31.48;99650.59;25173;1315;3025993;-66
2022/05/09 08:26:03;;;;;;;16.20;5.50;;;;;;;21.42;31.76;99648.95;25117;1313;3026645;-67
2022/05/09 08:28:32;;;;;;;25.90;5.30;;;;;;;21.53;31.62;99650.20;25173;1316;3051702;-69
2022/05/09 08:31:02;;;;;;;20.80;5.20;;;;;;;21.69;31.70;99648.48;25146;1312;3027266;-64
2022/05/09 08:33:31;;;;;;;34.40;5.60;;;;;;;21.61;31.86;99658.83;25151;1313;3026471;-67
2022/05/09 08:36:03;;;;;;;19.40;5.90;;;;;;;21.51;32.23;99650.17;25142;1312;3026225;-67
2022/05/09 08:38:32;;;;;;;21.00;5.60;;;;;;;21.38;32.92;99647.60;25160;1312;3052660;-65
2022/05/09 08:41:08;;;;;;;17.60;6.80;;;;;;;21.42;32.86;99642.64;25156;1312;3026464;-70
2022/05/09 08:43:48;;;;;;;16.10;5.90;;;;;;;21.53;33.06;99646.45;25103;1313;3068603;-65
2022/05/09 08:46:53;;;;;;;13.70;5.60;;;;;;;21.51;32.86;99643.20;25175;1313;3049343;-67
2022/05/09 08:49:31;;;;;;;;;;;;;;;21.54;32.73;99643.48;25125;1314;3055402;-68
2022/05/09 08:52:27;;;;;;;15.00;6.20;;;;;;;21.49;32.74;99641.27;25132;1315;3052935;-67
2022/05/09 08:54:56;;;;;;;20.40;6.10;;;;;;;21.60;33.19;99634.09;25089;1315;3060116;-69
2022/05/09 08:57:38;;;;;;;24.70;6.40;;;;;;;21.69;32.96;99647.66;25128;1313;3029961;-65
2022/05/09 09:00:12;;;;;;;15.50;6.60;;;;;;;21.76;32.66;99631.73;25133;1315;3053052;-65
2022/05/09 09:02:43;;;;;;;19.60;6.30;;;;;;;21.90;32.85;99635.30;25155;1312;3056205;-67
2022/05/09 09:05:15;;;;;;;19.70;6.00;;;;;;;21.87;32.76;99634.48;25146;1312;3026922;-68
2022/05/09 09:08:06;;;;;;;27.00;7.00;;;;;;;21.76;33.00;99639.05;25133;1312;3026440;-69
2022/05/09 09:10:39;;;;;;;27.90;7.40;;;;;;;21.57;33.67;99638.48;25121;1315;3051645;-70
2022/05/09 09:13:39;;;;;;;19.50;6.50;;;;;;;21.55;34.40;99638.91;25181;1312;3068960;-67
2022/05/09 09:16:22;;;;;;;23.80;7.30;;;;;;;21.54;34.67;99645.83;25134;1316;3052044;-67
2022/05/09 09:19:09;;;;;;;21.90;6.80;;;;;;;21.35;34.99;99651.98;25125;1316;3055117;-68
2022/05/09 09:22:02;;;;;;;21.90;7.10;;;;;;;21.43;34.87;99647.05;25102;1312;3055464;-70
2022/05/09 09:25:03;;;;;;;33.80;7.20;;;;;;;21.40;35.13;99656.70;25151;1312;3059506;-65
2022/05/09 09:27:43;;;;;;;24.40;7.20;;;;;;;21.30;35.12;99649.77;25106;1313;3052685;-71
2022/05/09 09:30:14;;;;;;;31.60;6.50;;;;;;;21.36;35.47;99648.52;25145;1313;3053128;-68
2022/05/09 09:32:48;;;;;;;42.10;6.50;;;;;;;21.43;35.40;99648.84;25138;1312;3026223;-68
2022/05/09 09:35:30;;;;;;;28.30;7.40;;;;;;;21.32;35.50;99656.25;25167;1312;3070547;-66
2022/05/09 09:38:29;;;;;;;36.00;7.10;;;;;;;21.31;35.75;99650.56;25145;1313;3051374;-65
2022/05/09 09:41:18;;;;;;;25.00;6.30;;;;;;;21.34;35.67;99648.37;25089;1312;3050884;-68
2022/05/09 09:43:48;;;;;;;22.20;6.00;;;;;;;21.59;34.99;99652.57;25193;1313;3053801;-67
2022/05/09 09:46:17;;;;;;;23.40;6.20;;;;;;;21.21;35.60;99659.16;25152;1312;3026396;-69
2022/05/09 09:49:00;;;;;;;22.70;6.20;;;;;;;21.21;35.77;99654.27;25053;1316;3030678;-71
2022/05/09 09:51:29;;;;;;;18.90;6.00;;;;;;;21.11;35.86;99652.45;25071;1315;3052667;-66
2022/05/09 09:54:01;;;;;;;20.40;7.20;;;;;;;20.96;36.43;99652.71;25151;1313;3026571;-68
2022/05/09 09:56:31;;;;;;;17.20;6.80;;;;;;;21.00;35.88;99651.67;25117;1315;3049753;-64
2022/05/09 09:59:16;;;;;;;20.60;5.90;;;;;;;20.93;36.02;99653.79;25135;1315;3026035;-68
2022/05/09 10:02:05;;;;;;;15.20;6.40;;;;;;;20.86;36.51;99649.46;25134;1313;3055854;-68
2022/05/09 10:04:34;;;;;;;23.40;6.60;;;;;;;21.11;36.70;99642.49;25116;1313;3071006;-64
2022/05/09 10:07:09;;;;;;;19.40;7.40;;;;;;;21.36;36.42;99638.73;25156;1313;3026745;-69
2022/05/09 10:10:23;;;;;;;37.80;5.70;;;;;;;21.27;37.57;99657.05;25185;1312;3051314;-72
2022/05/09 10:12:56;;;;;;;20.40;5.30;;;;;;;21.03;38.64;99651.66;25132;1313;3070865;-65
2022/05/09 10:15:31;;;;;;;25.00;5.50;;;;;;;20.96;39.23;99666.98;25185;1312;3028239;-70
2022/05/09 10:18:21;;;;;;;30.70;5.00;;;;;;;20.57;40.52;99674.59;25182;1312;3052890;-69
2022/05/09 10:20:51;;;;;;;10.50;4.70;;;;;;;20.68;40.30;99674.44;25122;1312;3053784;-69
2022/05/09 10:26:13;;;;;;;20.40;4.20;;;;;;;19.86;40.98;99690.31;25094;1315;3051476;-66
2022/05/09 10:28:47;;;;;;;22.40;4.30;;;;;;;19.89;41.21;99699.38;25123;1313;3026180;-64
2022/05/09 10:31:38;;;;;;;14.70;3.90;;;;;;;19.89;41.03;99689.38;25142;1313;3051012;-71
2022/05/09 10:34:38;;;;;;;18.30;4.90;;;;;;;19.73;41.27;99699.95;25135;1316;3071337;-67
2022/05/09 10:37:23;;;;;;;15.40;5.60;;;;;;;19.84;41.64;99689.13;25139;1312;3052459;-65
2022/05/09 10:39:55;;;;;;;6.60;3.80;;;;;;;19.82;41.38;99704.73;25181;1313;3053273;-66
2022/05/09 10:42:32;;;;;;;18.30;4.40;;;;;;;19.76;40.31;99700.01;25141;1312;3027435;-72
2022/05/09 10:45:04;;;;;;;16.10;4.10;;;;;;;19.86;40.78;99697.12;25153;1316;3055891;-69
2022/05/09 10:47:43;;;;;;;24.10;5.60;;;;;;;19.83;41.00;99691.89;25202;1313;3026631;-69
2022/05/09 10:50:26;;;;;;;15.30;4.70;;;;;;;19.93;41.48;99689.75;25168;1313;3052627;-66
2022/05/09 10:53:17;;;;;;;8.90;3.70;;;;;;;20.00;41.18;99687.23;25065;1315;3051449;-69
2022/05/09 10:56:03;;;;;;;13.60;3.80;;;;;;;19.83;40.97;99694.34;25117;1315;3069799;-67
2022/05/09 10:59:01;;;;;;;15.50;4.30;;;;;;;19.79;41.98;99691.02;25131;1315;3049364;-65
2022/05/09 11:01:44;;;;;;;11.40;4.70;;;;;;;19.91;42.49;99691.70;25117;1315;3054874;-66
2022/05/09 11:04:14;;;;;;;18.80;5.50;;;;;;;19.89;43.18;99689.00;25160;1315;3053047;-67
2022/05/09 11:06:59;;;;;;;18.20;5.50;;;;;;;20.03;42.92;99700.43;25175;1313;3029194;-66
2022/05/09 11:09:59;;;;;;;14.20;5.50;;;;;;;19.99;43.59;99701.73;25105;1315;3048851;-66
2022/05/09 11:12:49;;;;;;;26.30;5.00;;;;;;;19.81;44.81;99712.10;25153;1315;3051932;-70
2022/05/09 11:15:26;;;;;;;23.40;5.10;;;;;;;19.56;45.60;99705.45;25105;1315;3054388;-65
2022/05/09 11:17:56;;;;;;;20.40;5.40;;;;;;;19.48;46.39;99700.19;25159;1315;3068954;-65
2022/05/09 11:20:40;;;;;;;16.40;5.60;;;;;;;19.39;47.85;99711.27;25108;1313;3026444;-69
2022/05/09 11:23:24;;;;;;;14.50;4.30;;;;;;;19.10;49.24;99716.11;25145;1313;3054706;-64
2022/05/09 11:26:13;;;;;;;16.50;5.40;;;;;;;18.95;50.03;99704.36;25177;1315;3053102;-68
2022/05/09 11:29:06;;;;;;;15.90;5.80;;;;;;;18.91;50.94;99714.50;25136;1316;3056788;-66
2022/05/09 11:31:44;;;;;;;16.80;5.10;;;;;;;18.72;51.95;99711.92;25128;1313;3049984;-68
2022/05/09 11:34:19;;;;;;;18.70;5.10;;;;;;;18.68;52.46;99715.08;25141;1315;3055315;-71
2022/05/09 11:37:43;;;;;;;13.90;4.60;;;;;;;18.43;52.40;99714.53;25116;1315;3051793;-71
2022/05/09 11:40:15;;;;;;;13.50;4.60;;;;;;;18.44;50.74;99704.09;25007;1320;3067607;-69
2022/05/09 11:45:47;;;;;;;11.40;3.90;;;;;;;18.66;49.41;99700.21;25126;1315;3055154;-67
2022/05/09 11:48:27;;;;;;;13.00;4.20;;;;;;;18.68;49.51;99701.27;25201;1313;3026981;-73
2022/05/09 11:51:31;;;;;;;11.80;4.20;;;;;;;18.48;49.92;99693.90;25138;1315;3056230;-68
2022/05/09 11:54:02;;;;;;;9.30;3.70;;;;;;;18.45;49.87;99702.80;25748;1315;3049627;-69